Avoca, New York
Current Conditions -  °F | °C
As of 11:54 PM on Sunday 23 Nov 2014 (Local Time) from KDSV Reporting Station
Light Rain Light Rain  
Wind Chill: 53°   Ceiling: 10000
Heat Index: 53°   Visibility: 10mi
Dew Point: 40°   Wind: 18mph
Humidity: 61%   Direction: 160°SSE
Pressure: 29.68"   Gusts: 30mph
Location:  42.41°N, 77.42°W
Report Text: KDSV 240454Z AUTO 16016G26KT 10SM -RA OVC100 12/04 A2968 RMK AO2 PK WND 15027/0444 RAB48 PRESFR SLP059 P0000 T01170044 401170061
Loading
Personal Weather Stations






























Interactive Weather Map New forecast layout! Learn more

10-Day Weather Forecast

Advertisements
Track Severe Weather on mobile